createdAt,value
2018-04-24T00:02:26.591Z,15.90
2018-04-24T00:04:56.162Z,15.70
2018-04-24T00:07:25.770Z,15.60
2018-04-24T00:09:55.520Z,15.60
2018-04-24T00:12:24.281Z,15.50
2018-04-24T00:14:53.132Z,15.50
2018-04-24T00:17:21.987Z,15.40
2018-04-24T00:19:50.861Z,15.40
2018-04-24T00:22:19.700Z,15.40
2018-04-24T00:24:48.649Z,15.40
2018-04-24T00:27:17.492Z,15.30
2018-04-24T00:29:47.124Z,15.20
2018-04-24T00:32:16.755Z,15.20
2018-04-24T00:34:45.590Z,15.10
2018-04-24T00:37:14.446Z,15.20
2018-04-24T00:39:43.323Z,15.20
2018-04-24T00:42:12.181Z,15.20
2018-04-24T00:44:41.041Z,15.30
2018-04-24T00:47:09.885Z,15.40
2018-04-24T00:49:38.728Z,15.40
2018-04-24T00:52:08.347Z,15.20
2018-04-24T00:54:37.405Z,15.10
2018-04-24T00:57:06.269Z,15.20
2018-04-24T00:59:35.108Z,15.00
2018-04-24T01:02:04.917Z,14.80
2018-04-24T01:04:34.546Z,14.70
2018-04-24T01:07:03.461Z,14.70
2018-04-24T01:09:32.302Z,14.70
2018-04-24T01:12:01.912Z,14.70
2018-04-24T01:14:31.527Z,14.60
2018-04-24T01:17:00.360Z,14.50
2018-04-24T01:19:29.220Z,14.60
2018-04-24T01:21:58.069Z,14.50
2018-04-24T01:24:26.925Z,14.40
2018-04-24T01:26:55.756Z,14.40
2018-04-24T01:29:25.379Z,14.50
2018-04-24T01:31:54.231Z,14.40
2018-04-24T01:34:23.074Z,14.70
2018-04-24T01:36:51.916Z,14.70
2018-04-24T01:39:20.767Z,14.80
2018-04-24T01:41:49.593Z,14.90
2018-04-24T01:44:18.449Z,14.90
2018-04-24T01:46:47.320Z,14.90
2018-04-24T01:49:16.936Z,14.70
2018-04-24T01:51:46.548Z,14.70
2018-04-24T01:54:16.177Z,14.50
2018-04-24T01:56:45.020Z,14.50
2018-04-24T01:59:13.919Z,14.40
2018-04-24T02:01:42.710Z,14.30
2018-04-24T02:04:12.399Z,14.30
2018-04-24T02:06:41.220Z,14.20
2018-04-24T02:09:10.811Z,13.80
2018-04-24T02:11:39.641Z,13.80
2018-04-24T02:14:08.493Z,13.70
2018-04-24T02:16:37.328Z,13.50
2018-04-24T02:19:06.167Z,13.30
2018-04-24T02:21:35.777Z,13.50
2018-04-24T02:24:05.365Z,13.40
2018-04-24T02:26:34.208Z,13.30
2018-04-24T02:29:03.045Z,13.50
2018-04-24T02:31:31.890Z,13.80
2018-04-24T02:34:00.725Z,13.90
2018-04-24T02:36:29.565Z,13.80
2018-04-24T02:38:58.397Z,13.90
2018-04-24T02:41:27.242Z,13.90
2018-04-24T02:43:56.054Z,14.00
2018-04-24T02:46:24.897Z,13.80
2018-04-24T02:48:53.728Z,13.50
2018-04-24T02:51:22.578Z,13.20
2018-04-24T02:53:51.445Z,12.90
2018-04-24T02:56:20.304Z,12.60
2018-04-24T02:58:49.141Z,12.60
2018-04-24T03:01:17.972Z,12.70
2018-04-24T03:03:48.309Z,12.80
2018-04-24T03:06:17.139Z,12.80
2018-04-24T03:08:45.976Z,13.10
2018-04-24T03:11:14.809Z,13.00
2018-04-24T03:13:43.662Z,12.90
2018-04-24T03:16:12.494Z,12.80
2018-04-24T03:18:41.349Z,12.60
2018-04-24T03:21:10.957Z,12.70
2018-04-24T03:23:40.598Z,12.90
2018-04-24T03:26:09.407Z,12.90
2018-04-24T03:28:38.221Z,13.20
2018-04-24T03:31:07.060Z,13.30
2018-04-24T03:33:35.899Z,13.50
2018-04-24T03:36:04.749Z,13.30
2018-04-24T03:38:33.582Z,13.30
2018-04-24T03:41:02.407Z,13.10
2018-04-24T03:43:31.251Z,13.10
2018-04-24T03:46:00.829Z,12.80
2018-04-24T03:48:29.663Z,12.70
2018-04-24T03:50:58.504Z,13.10
2018-04-24T03:53:27.344Z,13.00
2018-04-24T03:55:56.176Z,12.70
2018-04-24T03:58:25.024Z,12.50
2018-04-24T04:00:53.850Z,12.60
2018-04-24T04:03:22.701Z,12.60
2018-04-24T04:05:51.525Z,12.70
2018-04-24T04:08:20.706Z,12.40
2018-04-24T04:10:49.561Z,12.50
2018-04-24T04:13:19.165Z,12.50
2018-04-24T04:15:48.858Z,12.70
2018-04-24T04:18:30.377Z,12.30
2018-04-24T04:21:11.405Z,12.30
2018-04-24T04:23:53.728Z,12.50
2018-04-24T04:26:23.416Z,12.60
2018-04-24T04:28:52.228Z,12.60
2018-04-24T04:31:21.844Z,12.80
2018-04-24T04:33:51.449Z,12.80
2018-04-24T04:36:21.059Z,12.60
2018-04-24T04:38:50.660Z,12.50
2018-04-24T04:41:20.358Z,12.30
2018-04-24T04:43:50.101Z,12.20
2018-04-24T04:46:19.844Z,12.60
2018-04-24T04:48:49.466Z,12.50
2018-04-24T04:51:18.321Z,12.40
2018-04-24T04:53:47.216Z,12.70
2018-04-24T04:56:16.014Z,12.80
2018-04-24T04:58:44.972Z,13.00
2018-04-24T05:01:13.830Z,12.80
2018-04-24T05:03:42.680Z,12.80
2018-04-24T05:06:11.497Z,12.40
2018-04-24T05:08:41.111Z,12.10
2018-04-24T05:11:09.934Z,12.00
2018-04-24T05:13:38.770Z,12.00
2018-04-24T05:16:08.349Z,12.40
2018-04-24T05:18:37.211Z,12.30
2018-04-24T05:21:06.019Z,12.50
2018-04-24T05:23:34.850Z,12.80
2018-04-24T05:26:03.669Z,12.70
2018-04-24T05:28:32.928Z,12.60
2018-04-24T05:31:02.828Z,13.00
2018-04-24T05:33:31.663Z,12.90
2018-04-24T05:36:00.503Z,12.90
2018-04-24T05:38:29.352Z,12.70
2018-04-24T05:40:58.181Z,12.90
2018-04-24T05:43:27.016Z,12.80
2018-04-24T05:45:55.844Z,12.90
2018-04-24T05:48:24.711Z,12.80
2018-04-24T05:50:53.545Z,12.80
2018-04-24T05:53:22.384Z,12.70
2018-04-24T05:55:51.232Z,12.90
2018-04-24T05:58:20.915Z,12.70
2018-04-24T06:00:50.469Z,12.50
2018-04-24T06:03:20.076Z,12.50
2018-04-24T06:05:50.559Z,12.60
2018-04-24T06:08:19.413Z,12.60
2018-04-24T06:10:48.228Z,12.80
2018-04-24T06:13:17.076Z,13.10
2018-04-24T06:15:46.695Z,13.20
2018-04-24T06:18:15.521Z,13.20
2018-04-24T06:20:44.365Z,13.30
2018-04-24T06:23:13.213Z,13.10
2018-04-24T06:25:42.899Z,12.70
2018-04-24T06:28:11.734Z,12.70
2018-04-24T06:30:41.369Z,13.00
2018-04-24T06:33:10.193Z,13.00
2018-04-24T06:35:39.149Z,13.20
2018-04-24T06:38:08.216Z,13.30
2018-04-24T06:40:37.833Z,13.40
2018-04-24T06:43:07.460Z,13.50
2018-04-24T06:45:36.537Z,13.40
2018-04-24T06:48:05.387Z,13.60
2018-04-24T06:50:34.218Z,13.80
2018-04-24T06:53:03.077Z,13.90
2018-04-24T06:55:33.424Z,13.50
2018-04-24T06:58:03.047Z,13.30
2018-04-24T07:00:31.914Z,13.30
2018-04-24T07:03:00.744Z,13.20
2018-04-24T07:05:29.569Z,13.20
2018-04-24T07:07:59.946Z,13.60
2018-04-24T07:10:28.793Z,13.60
2018-04-24T07:12:58.412Z,13.60
2018-04-24T07:15:28.012Z,13.20
2018-04-24T07:17:56.836Z,13.20
2018-04-24T07:20:25.671Z,13.20
2018-04-24T07:22:55.397Z,13.00
2018-04-24T07:25:25.008Z,13.10
2018-04-24T07:27:54.617Z,13.00
2018-04-24T07:30:24.281Z,12.90
2018-04-24T07:32:53.193Z,12.90
2018-04-24T07:35:21.981Z,13.10
2018-04-24T07:37:50.812Z,13.20
2018-04-24T07:40:19.665Z,13.20
2018-04-24T07:42:48.485Z,13.30
2018-04-24T07:45:17.337Z,13.20
2018-04-24T07:47:46.227Z,13.10
2018-04-24T07:50:15.081Z,13.30
2018-04-24T07:52:44.685Z,13.60
2018-04-24T07:55:13.528Z,13.60
2018-04-24T07:57:42.366Z,13.70
2018-04-24T08:00:11.976Z,14.10
2018-04-24T08:02:41.581Z,14.10
2018-04-24T08:05:11.197Z,14.10
2018-04-24T08:07:40.801Z,13.90
2018-04-24T08:10:10.411Z,14.00
2018-04-24T08:12:40.047Z,14.00
2018-04-24T08:15:08.873Z,13.90
2018-04-24T08:17:37.715Z,13.80
2018-04-24T08:20:06.568Z,13.90
2018-04-24T08:22:39.147Z,14.10
2018-04-24T08:25:08.737Z,14.20
2018-04-24T08:27:38.695Z,14.10
2018-04-24T08:30:07.538Z,14.00
2018-04-24T08:32:36.397Z,14.00
2018-04-24T08:35:05.663Z,13.90
2018-04-24T08:37:35.251Z,14.30
2018-04-24T08:40:04.197Z,14.20
2018-04-24T08:42:32.944Z,14.30
2018-04-24T08:45:02.535Z,14.70
2018-04-24T08:47:32.788Z,14.90
2018-04-24T08:50:01.837Z,14.90
2018-04-24T08:52:30.698Z,15.00
2018-04-24T08:54:59.873Z,14.70
2018-04-24T08:57:28.754Z,14.40
2018-04-24T08:59:58.373Z,13.90
2018-04-24T09:02:27.212Z,13.80
2018-04-24T09:04:56.049Z,13.60
2018-04-24T09:07:24.892Z,13.80
2018-04-24T09:09:53.745Z,13.90
2018-04-24T09:12:22.570Z,14.10
2018-04-24T09:14:51.416Z,14.30
2018-04-24T09:17:20.244Z,14.30
2018-04-24T09:19:49.097Z,14.60
2018-04-24T09:22:17.934Z,14.70
2018-04-24T09:24:47.861Z,15.20
2018-04-24T09:27:17.505Z,15.10
2018-04-24T09:30:05.041Z,15.00
2018-04-24T09:32:33.893Z,14.80
2018-04-24T09:35:03.476Z,15.10
2018-04-24T09:37:32.353Z,15.00
2018-04-24T09:40:01.160Z,15.00
2018-04-24T09:42:29.998Z,14.90
2018-04-24T09:44:58.845Z,14.70
2018-04-24T09:47:28.452Z,14.80
2018-04-24T09:49:57.316Z,14.70
2018-04-24T09:52:26.154Z,14.90
2018-04-24T09:54:54.981Z,14.80
2018-04-24T09:57:23.880Z,14.70
2018-04-24T09:59:52.693Z,14.80
2018-04-24T10:02:21.553Z,14.90
2018-04-24T10:04:50.406Z,14.80
2018-04-24T10:07:19.241Z,14.80
2018-04-24T10:09:48.222Z,14.70
2018-04-24T10:12:17.813Z,14.50
2018-04-24T10:14:47.414Z,14.70
2018-04-24T10:17:17.067Z,14.70
2018-04-24T10:19:45.915Z,14.70
2018-04-24T10:22:14.753Z,14.80
2018-04-24T10:24:43.593Z,14.80
2018-04-24T10:27:13.260Z,14.80
2018-04-24T10:29:42.106Z,14.70
2018-04-24T10:32:10.970Z,14.70
2018-04-24T10:34:40.592Z,14.60
2018-04-24T10:37:09.741Z,14.60
2018-04-24T10:39:38.604Z,14.70
2018-04-24T10:42:07.661Z,14.60
2018-04-24T10:44:37.303Z,14.40
2018-04-24T10:47:06.147Z,14.30
2018-04-24T10:49:35.773Z,14.40
2018-04-24T10:52:05.377Z,14.30
2018-04-24T10:54:35.030Z,14.20
2018-04-24T10:57:03.868Z,14.20
2018-04-24T10:59:33.494Z,14.20
2018-04-24T11:02:02.364Z,14.10
2018-04-24T11:04:31.204Z,14.20
2018-04-24T11:07:00.084Z,14.40
2018-04-24T11:09:28.927Z,14.30
2018-04-24T11:11:58.704Z,14.40
2018-04-24T11:14:27.796Z,14.30
2018-04-24T11:16:57.454Z,14.30
2018-04-24T11:19:27.086Z,14.50
2018-04-24T11:21:55.951Z,14.40
2018-04-24T11:24:25.589Z,14.50
2018-04-24T11:26:54.530Z,14.50
2018-04-24T11:29:23.346Z,14.40
2018-04-24T11:31:52.972Z,14.40
2018-04-24T11:34:21.839Z,14.40
2018-04-24T11:36:51.447Z,14.50
2018-04-24T11:39:21.078Z,14.50
2018-04-24T11:41:50.708Z,14.40
2018-04-24T11:44:19.573Z,14.40
2018-04-24T11:46:48.435Z,14.30
2018-04-24T11:49:17.281Z,14.30
2018-04-24T11:51:46.133Z,14.40
2018-04-24T11:54:15.746Z,14.40
2018-04-24T11:56:44.604Z,14.40
2018-04-24T11:59:13.449Z,14.30
2018-04-24T12:01:42.384Z,14.40
2018-04-24T12:04:11.205Z,14.50
2018-04-24T12:06:40.202Z,14.60
2018-04-24T12:09:09.034Z,14.50
2018-04-24T12:11:37.915Z,14.70
2018-04-24T12:14:06.987Z,15.00
2018-04-24T12:16:36.466Z,15.30
2018-04-24T12:19:06.089Z,15.60
2018-04-24T12:21:35.071Z,15.50
2018-04-24T12:24:04.702Z,15.80
2018-04-24T12:26:33.554Z,15.80
2018-04-24T12:29:03.180Z,15.70
2018-04-24T12:31:32.805Z,15.30
2018-04-24T12:34:02.424Z,15.10
2018-04-24T12:36:34.846Z,15.00
2018-04-24T12:39:03.692Z,15.00
2018-04-24T12:41:32.540Z,14.70
2018-04-24T12:44:02.155Z,14.90
2018-04-24T12:46:31.017Z,14.80
2018-04-24T12:48:59.914Z,14.70
2018-04-24T12:51:28.769Z,14.70
2018-04-24T12:53:57.630Z,14.80
2018-04-24T12:56:26.469Z,15.10
2018-04-24T12:58:56.109Z,15.40
2018-04-24T13:01:25.051Z,15.30
2018-04-24T13:03:53.979Z,15.10
2018-04-24T13:06:22.746Z,15.10
2018-04-24T13:08:52.377Z,15.00
2018-04-24T13:11:21.260Z,15.00
2018-04-24T13:13:50.884Z,15.00
2018-04-24T13:16:19.757Z,15.00
2018-04-24T13:18:48.581Z,15.10
2018-04-24T13:21:17.497Z,15.40
2018-04-24T13:23:46.349Z,15.50
2018-04-24T13:26:15.218Z,15.50
2018-04-24T13:28:44.070Z,15.60
2018-04-24T13:31:12.983Z,15.40
2018-04-24T13:33:41.768Z,15.60
2018-04-24T13:36:11.391Z,16.00
2018-04-24T13:38:40.241Z,15.90
2018-04-24T13:41:09.141Z,16.20
2018-04-24T13:43:37.950Z,16.30
2018-04-24T13:46:07.572Z,15.80
2018-04-24T13:48:36.413Z,15.80
2018-04-24T13:51:05.272Z,15.60
2018-04-24T13:53:34.114Z,15.70
2018-04-24T13:56:02.996Z,15.70
2018-04-24T13:58:32.604Z,16.00
2018-04-24T14:01:02.217Z,16.10
2018-04-24T14:03:32.551Z,16.10
2018-04-24T14:06:02.173Z,16.10
2018-04-24T14:08:31.022Z,16.10
2018-04-24T14:11:00.640Z,16.10
2018-04-24T14:13:30.258Z,16.40
2018-04-24T14:15:59.899Z,16.60
2018-04-24T14:18:29.464Z,16.60
2018-04-24T14:20:59.114Z,16.80
2018-04-24T14:23:27.995Z,16.70
2018-04-24T14:25:56.852Z,16.80
2018-04-24T14:28:26.492Z,16.60
2018-04-24T14:30:55.460Z,16.50
2018-04-24T14:33:24.880Z,16.60
2018-04-24T14:35:53.728Z,16.90
2018-04-24T14:38:23.372Z,17.10
2018-04-24T14:40:52.230Z,17.10
2018-04-24T14:43:21.104Z,17.00
2018-04-24T14:45:50.055Z,17.20
2018-04-24T14:48:18.918Z,17.40
2018-04-24T14:50:47.774Z,17.20
2018-04-24T14:53:16.617Z,17.10
2018-04-24T14:55:46.229Z,17.40
2018-04-24T14:58:15.864Z,17.30
2018-04-24T15:00:44.716Z,17.30
2018-04-24T15:03:13.777Z,17.30
2018-04-24T15:05:42.646Z,17.20
2018-04-24T15:08:11.529Z,17.40
2018-04-24T15:10:41.131Z,17.20
2018-04-24T15:13:10.774Z,17.10
2018-04-24T15:15:39.621Z,17.00
2018-04-24T15:18:09.014Z,17.10
2018-04-24T15:20:37.933Z,17.10
2018-04-24T15:23:06.737Z,17.20
2018-04-24T15:25:35.575Z,17.30
2018-04-24T15:28:04.457Z,17.30
2018-04-24T15:30:33.314Z,17.40
2018-04-24T15:33:02.163Z,17.80
2018-04-24T15:35:31.795Z,17.50
2018-04-24T15:38:00.654Z,17.50
2018-04-24T15:40:30.280Z,17.70
2018-04-24T15:42:59.141Z,17.60
2018-04-24T15:45:28.801Z,17.60
2018-04-24T15:47:57.687Z,17.50
2018-04-24T15:50:27.270Z,17.30
2018-04-24T15:52:56.930Z,17.20
2018-04-24T15:55:25.811Z,17.40
2018-04-24T15:57:54.654Z,17.40
2018-04-24T16:00:23.559Z,17.70
2018-04-24T16:02:52.499Z,17.50
2018-04-24T16:05:22.055Z,17.60
2018-04-24T16:07:50.885Z,17.50
2018-04-24T16:10:19.749Z,17.30
2018-04-24T16:12:48.588Z,17.20
2018-04-24T16:15:18.308Z,17.00
2018-04-24T16:17:47.185Z,17.20
2018-04-24T16:20:16.848Z,17.30
2018-04-24T16:22:45.731Z,17.20
2018-04-24T16:25:14.793Z,17.20
2018-04-24T16:27:43.667Z,17.30
2018-04-24T16:30:13.289Z,17.20
2018-04-24T16:32:42.151Z,17.10
2018-04-24T16:35:11.012Z,17.30
2018-04-24T16:37:39.873Z,17.50
2018-04-24T16:40:08.722Z,17.60
2018-04-24T16:42:38.457Z,17.40
2018-04-24T16:45:08.050Z,17.20
2018-04-24T16:47:37.772Z,17.20
2018-04-24T16:50:06.651Z,17.20
2018-04-24T16:52:35.514Z,17.30
2018-04-24T16:55:05.285Z,17.40
2018-04-24T16:57:35.471Z,17.40
2018-04-24T17:00:04.371Z,17.40
2018-04-24T17:02:33.437Z,17.40
2018-04-24T17:05:03.661Z,17.30
2018-04-24T17:07:32.502Z,17.30
2018-04-24T17:10:02.155Z,17.40
2018-04-24T17:12:31.771Z,17.50
2018-04-24T17:15:00.612Z,17.40
2018-04-24T17:17:30.269Z,17.60
2018-04-24T17:20:00.107Z,17.50
2018-04-24T17:22:28.942Z,17.70
2018-04-24T17:24:59.631Z,17.80
2018-04-24T17:27:29.301Z,17.80
2018-04-24T17:29:58.151Z,17.70
2018-04-24T17:32:27.759Z,17.90
2018-04-24T17:34:57.413Z,17.90
2018-04-24T17:37:26.271Z,17.80
2018-04-24T17:39:55.161Z,17.80
2018-04-24T17:42:24.785Z,17.80
2018-04-24T17:44:53.649Z,17.80
2018-04-24T17:47:22.547Z,17.90
2018-04-24T17:49:51.583Z,18.00
2018-04-24T17:52:21.179Z,18.00
2018-04-24T17:54:50.052Z,18.00
2018-04-24T17:57:19.128Z,18.00
2018-04-24T17:59:47.996Z,18.00
2018-04-24T18:02:17.616Z,18.00
2018-04-24T18:04:46.482Z,17.90
2018-04-24T18:07:15.365Z,18.00
2018-04-24T18:09:44.997Z,17.90
2018-04-24T18:12:14.661Z,17.80
2018-04-24T18:14:44.076Z,17.80
2018-04-24T18:17:13.669Z,17.90
2018-04-24T18:19:42.513Z,17.90
2018-04-24T18:22:11.498Z,17.90
2018-04-24T18:24:40.418Z,17.90
2018-04-24T18:27:10.019Z,17.70
2018-04-24T18:29:39.656Z,17.60
2018-04-24T18:32:08.511Z,17.60
2018-04-24T18:34:37.443Z,17.60
2018-04-24T18:37:08.142Z,17.50
2018-04-24T18:39:36.997Z,17.50
2018-04-24T18:42:05.917Z,17.50
2018-04-24T18:44:34.865Z,17.50
2018-04-24T18:47:04.512Z,17.60
2018-04-24T18:49:33.437Z,17.50
2018-04-24T18:52:02.312Z,17.50
2018-04-24T18:54:32.114Z,17.50
2018-04-24T18:57:01.911Z,17.50
2018-04-24T18:59:30.802Z,17.40
2018-04-24T19:01:59.800Z,17.50
2018-04-24T19:04:28.851Z,17.40
2018-04-24T19:06:58.700Z,17.30
2018-04-24T19:09:28.427Z,16.90
2018-04-24T19:11:58.696Z,16.80
2018-04-24T19:14:28.444Z,16.70
2018-04-24T19:16:58.197Z,16.70
2018-04-24T19:19:27.199Z,16.60
2018-04-24T19:21:56.877Z,16.70
2018-04-24T19:24:32.340Z,16.70
2018-04-24T19:27:01.877Z,16.70
2018-04-24T19:29:30.902Z,16.60
2018-04-24T19:32:05.534Z,16.60
2018-04-24T19:34:34.440Z,16.50
2018-04-24T19:37:04.280Z,16.60
2018-04-24T19:39:38.889Z,16.60
2018-04-24T19:42:08.513Z,16.70
2018-04-24T19:44:37.384Z,16.70
2018-04-24T19:47:07.128Z,16.80
2018-04-24T19:49:41.787Z,16.70
2018-04-24T19:52:12.708Z,16.80
2018-04-24T19:54:48.111Z,16.40
2018-04-24T19:57:17.020Z,16.30
2018-04-24T19:59:46.734Z,15.90
2018-04-24T20:02:16.967Z,15.80
2018-04-24T20:04:45.879Z,15.80
2018-04-24T20:07:14.754Z,15.90
2018-04-24T20:09:43.605Z,16.00
2018-04-24T20:12:12.845Z,16.10
2018-04-24T20:14:41.724Z,16.00
2018-04-24T20:17:11.349Z,16.00
2018-04-24T20:19:40.209Z,16.00
2018-04-24T20:22:09.070Z,16.10
2018-04-24T20:24:37.917Z,16.00
2018-04-24T20:27:06.808Z,16.10
2018-04-24T20:29:35.663Z,16.20
2018-04-24T20:32:05.295Z,16.40
2018-04-24T20:34:34.306Z,16.40
2018-04-24T20:37:03.943Z,16.50
2018-04-24T20:39:32.777Z,16.40
2018-04-24T20:42:01.684Z,16.50
2018-04-24T20:44:30.605Z,16.40
2018-04-24T20:46:59.506Z,16.30
2018-04-24T20:49:28.385Z,16.30
2018-04-24T20:51:57.244Z,16.20
2018-04-24T20:54:26.327Z,16.10
2018-04-24T20:56:55.193Z,16.00
2018-04-24T20:59:24.070Z,15.90
2018-04-24T21:01:53.925Z,15.80
2018-04-24T21:04:22.803Z,15.80
2018-04-24T21:06:52.455Z,15.80
2018-04-24T21:09:21.316Z,15.80
2018-04-24T21:11:51.692Z,15.90
2018-04-24T21:14:20.536Z,15.90
2018-04-24T21:16:49.373Z,16.00
2018-04-24T21:19:18.213Z,16.10
2018-04-24T21:21:47.077Z,16.00
2018-04-24T21:24:16.740Z,16.10
2018-04-24T21:26:45.599Z,16.00
2018-04-24T21:29:14.512Z,16.10
2018-04-24T21:31:43.337Z,16.00
2018-04-24T21:34:12.980Z,15.70
2018-04-24T21:36:41.848Z,15.70
2018-04-24T21:39:11.473Z,15.90
2018-04-24T21:41:40.341Z,15.80
2018-04-24T21:44:09.197Z,15.90
2018-04-24T21:46:38.028Z,15.90
2018-04-24T21:49:07.673Z,15.90
2018-04-24T21:51:37.176Z,15.90
2018-04-24T21:54:06.028Z,15.80
2018-04-24T21:56:34.865Z,15.90
2018-04-24T21:59:03.836Z,16.00
2018-04-24T22:01:32.713Z,16.10
2018-04-24T22:04:01.568Z,16.10
2018-04-24T22:06:30.848Z,16.20
2018-04-24T22:08:59.708Z,16.30
2018-04-24T22:11:28.551Z,16.40
2018-04-24T22:13:57.862Z,16.40
2018-04-24T22:16:27.474Z,16.60
2018-04-24T22:18:56.454Z,16.50
2018-04-24T22:21:26.089Z,16.80
2018-04-24T22:23:54.993Z,16.70
2018-04-24T22:26:23.865Z,16.70
2018-04-24T22:28:52.713Z,16.80
2018-04-24T22:31:21.599Z,16.70
2018-04-24T22:33:50.437Z,16.70
2018-04-24T22:36:19.293Z,16.70
2018-04-24T22:38:48.917Z,16.70
2018-04-24T22:41:19.451Z,16.70
2018-04-24T22:43:48.309Z,16.60
2018-04-24T22:46:17.164Z,16.70
2018-04-24T22:48:46.033Z,16.70
2018-04-24T22:51:15.648Z,16.90
2018-04-24T22:53:44.495Z,16.80
2018-04-24T22:56:14.287Z,16.80
2018-04-24T22:58:43.870Z,16.80
2018-04-24T23:01:12.806Z,16.70
2018-04-24T23:03:41.657Z,16.80
2018-04-24T23:06:10.513Z,16.90
2018-04-24T23:08:40.038Z,16.80
2018-04-24T23:11:20.964Z,16.80
2018-04-24T23:14:08.353Z,16.80
2018-04-24T23:16:55.146Z,16.70
2018-04-24T23:19:41.895Z,16.70
2018-04-24T23:22:35.532Z,16.60
2018-04-24T23:25:04.489Z,16.60
2018-04-24T23:27:34.333Z,16.50
2018-04-24T23:30:03.211Z,16.50
2018-04-24T23:32:32.816Z,16.40
2018-04-24T23:35:02.462Z,16.50
2018-04-24T23:37:31.301Z,16.50
2018-04-24T23:40:00.940Z,16.60
2018-04-24T23:42:29.789Z,16.50
2018-04-24T23:44:58.632Z,16.40
2018-04-24T23:47:27.470Z,16.30
2018-04-24T23:49:56.316Z,16.40
2018-04-24T23:52:25.149Z,16.30
2018-04-24T23:54:53.997Z,16.30
2018-04-24T23:57:23.670Z,16.30
2018-04-24T23:59:52.533Z,16.20
